Wetterdaten: Woche 08.12.03 - 14.12.03 (KW50)
Datum Zeit Temperatur Luftfeuchte Luftdruck Regenmenge Wind Richtung Taupunkt Windchill
08.12.2003 00:00 -3.7 C 70 % 1027.4 hPa 0.0 l/m 1.6 km/h (1 Bft) O-NO -8.3 C -4.2 C
08.12.2003 01:00 -4.5 C 75 % 1027.4 hPa 0.0 l/m 0.3 km/h (0 Bft) O-NO -8.3 C -4.6 C
08.12.2003 02:00 -5.0 C 77 % 1027.4 hPa 0.0 l/m 1.3 km/h (1 Bft) O-NO -8.4 C -5.3 C
08.12.2003 03:00 -5.5 C 80 % 1028.2 hPa 0.0 l/m 1.5 km/h (1 Bft) O-NO -8.5 C -5.7 C
08.12.2003 04:00 -5.5 C 82 % 1028.1 hPa 0.0 l/m 0.6 km/h (0 Bft) O-NO -8.2 C -5.8 C
08.12.2003 05:00 -4.6 C 83 % 1027.4 hPa 0.0 l/m 0.1 km/h (0 Bft) N -7.0 C -4.6 C
08.12.2003 06:00 -3.8 C 81 % 1027.4 hPa 0.0 l/m 0.5 km/h (0 Bft) NO -6.7 C -4.0 C
08.12.2003 07:00 -3.6 C 79 % 1027.4 hPa 0.0 l/m 0.2 km/h (0 Bft) N-NW -6.7 C -3.6 C
08.12.2003 08:00 -3.2 C 77 % 1028.1 hPa 0.0 l/m 0.0 km/h (0 Bft) N -6.6 C -3.2 C
08.12.2003 09:00 -2.3 C 75 % 1028.5 hPa 0.0 l/m 0.9 km/h (0 Bft) O -6.1 C -2.5 C
08.12.2003 10:00 -1.6 C 75 % 1028.5 hPa 0.0 l/m 0.4 km/h (0 Bft) NO -5.5 C -1.6 C
08.12.2003 11:00 -1.0 C 73 % 1028.5 hPa 0.0 l/m 1.5 km/h (1 Bft) O-NO -5.2 C -1.5 C
08.12.2003 12:00 -0.6 C 71 % 1027.6 hPa 0.0 l/m 1.1 km/h (0 Bft) O -5.2 C -0.9 C
08.12.2003 13:00 -0.4 C 70 % 1027.4 hPa 0.0 l/m 1.0 km/h (0 Bft) O-SO -5.2 C -0.7 C
08.12.2003 14:00 -0.4 C 70 % 1026.4 hPa 0.0 l/m 0.1 km/h (0 Bft) N -5.2 C -0.4 C
08.12.2003 15:00 -0.8 C 72 % 1026.4 hPa 0.0 l/m 1.0 km/h (0 Bft) NO -5.1 C -1.0 C
08.12.2003 16:00 -1.2 C 76 % 1026.4 hPa 0.0 l/m 2.1 km/h (1 Bft) O -4.9 C -1.7 C
08.12.2003 17:00 -1.5 C 76 % 1026.4 hPa 0.0 l/m 8.8 km/h (2 Bft) O-SO -5.2 C -4.3 C
08.12.2003 18:00 -1.7 C 77 % 1026.1 hPa 0.0 l/m 2.9 km/h (1 Bft) NO -5.2 C -2.6 C
08.12.2003 19:00 -1.9 C 79 % 1025.3 hPa 0.0 l/m 2.0 km/h (1 Bft) NO -5.1 C -2.4 C
08.12.2003 20:00 -2.2 C 80 % 1025.3 hPa 0.0 l/m 0.9 km/h (0 Bft) O-NO -5.2 C -2.4 C
08.12.2003 21:00 -2.3 C 81 % 1024.5 hPa 0.0 l/m 4.1 km/h (1 Bft) O -5.1 C -3.5 C
08.12.2003 22:00 -2.7 C 80 % 1023.8 hPa 0.0 l/m 18.1 km/h (3 Bft) O-SO -5.6 C -8.1 C
08.12.2003 23:00 -3.0 C 84 % 1023.3 hPa 0.0 l/m 27.4 km/h (4 Bft) O-SO -5.4 C -9.9 C
09.12.2003 00:00 -2.5 C 83 % 1022.6 hPa 0.0 l/m 15.1 km/h (3 Bft) O-SO -5.1 C -7.0 C
09.12.2003 01:00 -2.7 C 79 % 1022.1 hPa 0.0 l/m 10.4 km/h (2 Bft) O -5.8 C -6.2 C
09.12.2003 02:00 -3.3 C 80 % 1021.4 hPa 0.0 l/m 11.4 km/h (2 Bft) O-SO -6.2 C -7.2 C
09.12.2003 03:00 -3.4 C 81 % 1021.2 hPa 0.0 l/m 7.1 km/h (2 Bft) O-SO -6.1 C -6.0 C
09.12.2003 04:00 -3.5 C 84 % 1021.2 hPa 0.0 l/m 4.7 km/h (1 Bft) O-SO -5.8 C -5.2 C
09.12.2003 05:00 -3.6 C 84 % 1021.2 hPa 0.0 l/m 0.3 km/h (0 Bft) O-SO -5.9 C -3.6 C
09.12.2003 06:00 -3.5 C 83 % 1021.2 hPa 0.0 l/m 0.0 km/h (0 Bft) N -5.9 C -3.5 C
09.12.2003 07:00 -3.1 C 82 % 1021.2 hPa 0.0 l/m 0.0 km/h (0 Bft) N -5.6 C -3.1 C
09.12.2003 08:00 -3.1 C 82 % 1021.7 hPa 0.0 l/m 0.6 km/h (0 Bft) O-SO -5.7 C -3.1 C
09.12.2003 09:00 -2.6 C 82 % 1022.2 hPa 0.0 l/m 0.0 km/h (0 Bft) N -5.3 C -2.6 C
09.12.2003 10:00 -1.8 C 80 % 1022.2 hPa 0.0 l/m 0.0 km/h (0 Bft) N -4.7 C -1.8 C
09.12.2003 11:00 -1.3 C 78 % 1021.2 hPa 0.0 l/m 0.1 km/h (0 Bft) S -4.7 C -1.3 C
09.12.2003 12:00 -0.7 C 76 % 1020.5 hPa 0.0 l/m 0.3 km/h (0 Bft) N -4.3 C -0.7 C
09.12.2003 13:00 -0.4 C 77 % 1019.8 hPa 0.0 l/m 0.1 km/h (0 Bft) N -4.0 C -0.4 C
09.12.2003 14:00 -0.2 C 76 % 1019.1 hPa 0.0 l/m 0.4 km/h (0 Bft) O-NO -3.9 C -0.3 C
09.12.2003 15:00 -0.6 C 76 % 1019.1 hPa 0.0 l/m 0.1 km/h (0 Bft) N -4.2 C -0.6 C
09.12.2003 16:00 -1.0 C 78 % 1018.4 hPa 0.0 l/m 2.1 km/h (1 Bft) N-NO -4.4 C -1.6 C
09.12.2003 17:00 -1.4 C 79 % 1018.1 hPa 0.0 l/m 7.6 km/h (2 Bft) O-SO -4.7 C -4.2 C
09.12.2003 18:00 -1.8 C 79 % 1018.1 hPa 0.0 l/m 10.2 km/h (2 Bft) O-SO -4.9 C -5.1 C
09.12.2003 19:00 -2.1 C 80 % 1017.9 hPa 0.0 l/m 8.1 km/h (2 Bft) O-SO -5.0 C -5.0 C
09.12.2003 20:00 -2.4 C 81 % 1017.1 hPa 0.0 l/m 2.8 km/h (1 Bft) O-SO -5.2 C -3.3 C
09.12.2003 21:00 -2.5 C 81 % 1016.9 hPa 0.0 l/m 0.5 km/h (0 Bft) O-NO -5.4 C -2.6 C
09.12.2003 22:00 -2.6 C 82 % 1016.0 hPa 0.0 l/m 2.8 km/h (1 Bft) O-NO -5.3 C -3.5 C
09.12.2003 23:00 -2.7 C 83 % 1016.0 hPa 0.0 l/m 0.9 km/h (0 Bft) O-SO -5.2 C -2.9 C
10.12.2003 00:00 -2.7 C 82 % 1015.8 hPa 0.0 l/m 3.3 km/h (1 Bft) O-NO -5.4 C -4.0 C
10.12.2003 01:00 -2.7 C 81 % 1015.0 hPa 0.0 l/m 1.5 km/h (1 Bft) O-SO -5.5 C -3.1 C
10.12.2003 02:00 -2.7 C 82 % 1014.9 hPa 0.0 l/m 0.2 km/h (0 Bft) O-SO -5.2 C -2.7 C
10.12.2003 03:00 -2.8 C 81 % 1014.9 hPa 0.0 l/m 0.0 km/h (0 Bft) N -5.7 C -2.8 C
10.12.2003 04:00 -2.8 C 82 % 1014.9 hPa 0.0 l/m 2.4 km/h (1 Bft) NO -5.5 C -3.7 C
10.12.2003 05:00 -3.0 C 82 % 1014.1 hPa 0.0 l/m 0.7 km/h (0 Bft) W-NW -5.6 C -3.2 C
10.12.2003 06:00 -2.7 C 82 % 1013.9 hPa 0.0 l/m 0.0 km/h (0 Bft) N -5.4 C -2.7 C
10.12.2003 07:00 -2.6 C 81 % 1014.2 hPa 0.0 l/m 0.3 km/h (0 Bft) N-NW -5.4 C -2.6 C
10.12.2003 08:00 -2.1 C 82 % 1014.9 hPa 0.0 l/m 0.2 km/h (0 Bft) N -4.8 C -2.1 C
10.12.2003 09:00 -1.6 C 80 % 1015.6 hPa 0.0 l/m 0.6 km/h (0 Bft) SO -4.5 C -1.7 C
10.12.2003 10:00 -0.2 C 78 % 1016.6 hPa 0.0 l/m 2.0 km/h (1 Bft) SO -3.6 C -0.7 C
10.12.2003 11:00 0.3 C 76 % 1017.0 hPa 0.0 l/m 3.6 km/h (1 Bft) O-SO -3.4 C -0.5 C
10.12.2003 12:00 1.0 C 74 % 1017.0 hPa 0.0 l/m 8.6 km/h (2 Bft) O-SO -3.2 C -1.4 C
10.12.2003 13:00 2.0 C 69 % 1016.4 hPa 0.0 l/m 3.5 km/h (1 Bft) SO -3.1 C 1.2 C
10.12.2003 14:00 2.6 C 66 % 1017.0 hPa 0.0 l/m 5.7 km/h (1 Bft) O-SO -3.2 C 1.4 C
10.12.2003 15:00 2.1 C 67 % 1017.0 hPa 0.0 l/m 2.0 km/h (1 Bft) O-SO -3.5 C 1.6 C
10.12.2003 16:00 0.1 C 74 % 1017.5 hPa 0.0 l/m 0.4 km/h (0 Bft) N-NW -3.9 C 0.1 C
10.12.2003 17:00 -1.2 C 81 % 1018.1 hPa 0.0 l/m 2.0 km/h (1 Bft) NO -4.0 C -1.9 C
10.12.2003 18:00 -2.4 C 84 % 1019.1 hPa 0.0 l/m 0.0 km/h (0 Bft) N -4.8 C -2.4 C
10.12.2003 19:00 -2.6 C 86 % 1019.1 hPa 0.0 l/m 3.2 km/h (1 Bft) NO -4.6 C -3.7 C
10.12.2003 20:00 -3.0 C 87 % 1019.6 hPa 0.0 l/m 2.7 km/h (1 Bft) NO -4.8 C -3.9 C
10.12.2003 21:00 -3.8 C 87 % 1020.6 hPa 0.0 l/m 0.2 km/h (0 Bft) NO -5.7 C -3.8 C
10.12.2003 22:00 -4.2 C 86 % 1021.2 hPa 0.0 l/m 0.2 km/h (0 Bft) NO -6.2 C -4.2 C
10.12.2003 23:00 -4.3 C 85 % 1021.2 hPa 0.0 l/m 0.0 km/h (0 Bft) N -6.4 C -4.3 C
11.12.2003 00:00 -4.7 C 84 % 1021.2 hPa 0.0 l/m 1.1 km/h (1 Bft) NO -6.9 C -5.1 C
11.12.2003 01:00 -4.6 C 85 % 1021.2 hPa 0.0 l/m 0.4 km/h (0 Bft) N -6.7 C -4.8 C
11.12.2003 02:00 -4.9 C 84 % 1021.2 hPa 0.0 l/m 2.1 km/h (1 Bft) O-NO -7.1 C -5.5 C
11.12.2003 03:00 -4.1 C 90 % 1021.6 hPa 0.0 l/m 0.4 km/h (0 Bft) N -5.4 C -4.2 C
11.12.2003 04:00 -3.9 C 88 % 1022.0 hPa 0.0 l/m 1.0 km/h (0 Bft) O-SO -5.6 C -4.3 C
11.12.2003 05:00 -3.7 C 92 % 1022.0 hPa 0.0 l/m 0.1 km/h (0 Bft) N -4.7 C -3.7 C
11.12.2003 06:00 -3.6 C 93 % 1022.1 hPa 0.0 l/m 0.4 km/h (0 Bft) SO -4.6 C -3.7 C
11.12.2003 07:00 -3.6 C 93 % 1022.2 hPa 0.0 l/m 0.9 km/h (0 Bft) SO -4.7 C -3.9 C
11.12.2003 08:00 -3.8 C 93 % 1022.2 hPa 0.0 l/m 0.0 km/h (0 Bft) N -4.7 C -3.8 C
11.12.2003 09:00 -3.6 C 95 % 1022.2 hPa 0.0 l/m 0.0 km/h (0 Bft) N -4.3 C -3.6 C
11.12.2003 10:00 -3.2 C 95 % 1022.2 hPa 0.0 l/m 0.1 km/h (0 Bft) N -3.8 C -3.2 C
11.12.2003 11:00 -2.1 C 94 % 1022.2 hPa 0.0 l/m 0.7 km/h (0 Bft) N -3.0 C -2.4 C
11.12.2003 12:00 0.1 C 90 % 1021.2 hPa 0.0 l/m 1.5 km/h (1 Bft) NO -1.3 C -0.1 C
11.12.2003 13:00 2.0 C 83 % 1021.0 hPa 0.0 l/m 0.7 km/h (0 Bft) N-NO -0.5 C 2.0 C
11.12.2003 14:00 2.8 C 80 % 1020.1 hPa 0.0 l/m 0.1 km/h (0 Bft) N -0.4 C 2.8 C
11.12.2003 15:00 2.4 C 80 % 1020.1 hPa 0.0 l/m 0.0 km/h (0 Bft) N -0.7 C 2.4 C
11.12.2003 16:00 0.9 C 82 % 1020.1 hPa 0.0 l/m 0.0 km/h (0 Bft) N -1.8 C 0.9 C
11.12.2003 17:00 -0.8 C 84 % 1020.1 hPa 0.0 l/m 0.0 km/h (0 Bft) N -3.1 C -0.8 C
11.12.2003 18:00 -0.9 C 86 % 1020.1 hPa 0.0 l/m 0.0 km/h (0 Bft) N -2.9 C -0.9 C
11.12.2003 19:00 -0.9 C 88 % 1020.1 hPa 0.0 l/m 0.0 km/h (0 Bft) N -2.6 C -0.9 C
11.12.2003 20:00 -0.5 C 90 % 1020.1 hPa 0.0 l/m 2.8 km/h (1 Bft) O-SO -1.9 C -1.3 C
11.12.2003 21:00 0.1 C 90 % 1020.1 hPa 0.0 l/m 2.1 km/h (1 Bft) O -1.4 C -0.6 C
11.12.2003 22:00 0.3 C 89 % 1019.7 hPa 0.0 l/m 0.6 km/h (0 Bft) N -1.4 C 0.1 C
11.12.2003 23:00 0.4 C 90 % 1019.7 hPa 0.0 l/m 0.9 km/h (0 Bft) N-NO -1.1 C 0.3 C
12.12.2003 00:00 0.8 C 89 % 1019.8 hPa 0.0 l/m 0.4 km/h (0 Bft) N-NO -0.9 C 0.8 C
12.12.2003 01:00 0.9 C 87 % 1020.2 hPa 0.0 l/m 0.1 km/h (0 Bft) N -1.0 C 0.9 C
12.12.2003 02:00 1.0 C 84 % 1021.3 hPa 0.0 l/m 0.4 km/h (0 Bft) N -1.3 C 1.0 C
12.12.2003 03:00 1.1 C 87 % 1022.2 hPa 0.3 l/m 1.9 km/h (1 Bft) O -0.8 C 0.7 C
12.12.2003 04:00 1.7 C 91 % 1022.3 hPa 0.0 l/m 0.5 km/h (0 Bft) O 0.4 C 1.7 C
12.12.2003 05:00 2.0 C 95 % 1023.3 hPa 0.3 l/m 6.2 km/h (2 Bft) O-SO 1.3 C 0.3 C
12.12.2003 06:00 2.2 C 96 % 1023.5 hPa 0.0 l/m 1.0 km/h (0 Bft) O-SO 1.7 C 2.0 C
12.12.2003 07:00 2.2 C 99 % 1024.5 hPa 0.0 l/m 0.0 km/h (0 Bft) N 2.1 C 2.2 C
12.12.2003 08:00 2.4 C 99 % 1025.3 hPa 0.0 l/m 0.6 km/h (0 Bft) O-SO 2.3 C 2.4 C
12.12.2003 09:00 3.2 C 100 % 1026.2 hPa 0.0 l/m 2.5 km/h (1 Bft) O-SO 3.2 C 2.8 C
12.12.2003 10:00 4.0 C 100 % 1026.4 hPa 0.0 l/m 0.0 km/h (0 Bft) N 4.0 C 4.0 C
12.12.2003 11:00 4.9 C 100 % 1026.4 hPa 0.0 l/m 2.6 km/h (1 Bft) O 4.9 C 4.5 C
12.12.2003 12:00 4.9 C 97 % 1026.4 hPa 0.0 l/m 0.3 km/h (0 Bft) O 4.5 C 4.9 C
12.12.2003 13:00 5.3 C 94 % 1026.4 hPa 0.0 l/m 0.3 km/h (0 Bft) O 4.4 C 5.3 C
12.12.2003 14:00 5.9 C 92 % 1026.4 hPa 0.0 l/m 0.0 km/h (0 Bft) N 4.6 C 5.9 C
12.12.2003 15:00 5.9 C 90 % 1026.4 hPa 0.0 l/m 0.0 km/h (0 Bft) N 4.4 C 5.9 C
12.12.2003 16:00 5.6 C 87 % 1026.4 hPa 0.0 l/m 0.0 km/h (0 Bft) N 3.7 C 5.6 C
12.12.2003 17:00 4.6 C 93 % 1026.4 hPa 0.0 l/m 1.5 km/h (1 Bft) O 3.5 C 4.3 C
12.12.2003 18:00 2.5 C 94 % 1027.0 hPa 0.0 l/m 7.4 km/h (2 Bft) O 1.6 C 0.6 C
12.12.2003 19:00 1.4 C 95 % 1027.4 hPa 0.0 l/m 4.2 km/h (1 Bft) O-SO 0.7 C 0.1 C
12.12.2003 20:00 1.0 C 99 % 1027.4 hPa 0.0 l/m 2.2 km/h (1 Bft) O-SO 0.8 C 0.5 C
12.12.2003 21:00 1.4 C 98 % 1027.4 hPa 0.0 l/m 0.6 km/h (0 Bft) O-SO 1.1 C 1.4 C
12.12.2003 22:00 1.5 C 98 % 1027.4 hPa 0.0 l/m 2.8 km/h (1 Bft) O-SO 1.2 C 0.8 C
12.12.2003 23:00 1.4 C 99 % 1027.4 hPa 0.0 l/m 4.6 km/h (1 Bft) O-SO 1.3 C 0.2 C
13.12.2003 00:00 1.7 C 100 % 1027.4 hPa 0.0 l/m 8.5 km/h (2 Bft) O-SO 1.7 C -0.7 C
13.12.2003 01:00 1.9 C 100 % 1027.4 hPa 0.0 l/m 7.8 km/h (2 Bft) O-SO 1.9 C -0.3 C
13.12.2003 02:00 2.0 C 100 % 1027.4 hPa 0.0 l/m 1.7 km/h (1 Bft) O-SO 2.0 C 1.6 C
13.12.2003 03:00 2.5 C 100 % 1026.8 hPa 0.0 l/m 1.5 km/h (1 Bft) O-SO 2.5 C 2.3 C
13.12.2003 04:00 2.8 C 100 % 1026.4 hPa 0.0 l/m 0.5 km/h (0 Bft) O-SO 2.8 C 2.7 C
13.12.2003 05:00 3.3 C 100 % 1025.7 hPa 0.0 l/m 1.6 km/h (1 Bft) O-SO 3.2 C 3.1 C
13.12.2003 06:00 4.0 C 95 % 1025.3 hPa 0.0 l/m 0.8 km/h (0 Bft) O-SO 3.3 C 3.9 C
13.12.2003 07:00 4.2 C 89 % 1025.3 hPa 0.0 l/m 0.4 km/h (0 Bft) O-NO 2.6 C 4.2 C
13.12.2003 08:00 4.8 C 82 % 1025.3 hPa 0.0 l/m 2.4 km/h (1 Bft) SO 2.1 C 4.6 C
13.12.2003 09:00 5.5 C 76 % 1025.3 hPa 0.0 l/m 5.2 km/h (1 Bft) O-SO 1.6 C 4.6 C
13.12.2003 10:00 6.7 C 71 % 1025.3 hPa 0.0 l/m 14.8 km/h (3 Bft) O-SO 1.8 C 4.1 C
13.12.2003 11:00 8.0 C 66 % 1024.4 hPa 0.0 l/m 12.6 km/h (3 Bft) SO 2.0 C 6.1 C
13.12.2003 12:00 9.5 C 61 % 1023.6 hPa 0.0 l/m 13.1 km/h (3 Bft) O-SO 2.2 C 7.8 C
13.12.2003 13:00 9.5 C 62 % 1022.7 hPa 0.0 l/m 13.7 km/h (3 Bft) SO 2.7 C 7.5 C
13.12.2003 14:00 9.3 C 65 % 1022.2 hPa 0.0 l/m 14.1 km/h (3 Bft) SO 3.0 C 7.4 C
13.12.2003 15:00 9.4 C 65 % 1021.7 hPa 0.0 l/m 15.4 km/h (3 Bft) SO 3.3 C 7.2 C
13.12.2003 16:00 9.4 C 67 % 1021.4 hPa 0.0 l/m 14.6 km/h (3 Bft) SO 3.6 C 7.4 C
13.12.2003 17:00 8.5 C 68 % 1021.2 hPa 0.0 l/m 12.4 km/h (3 Bft) SO 3.1 C 6.6 C
13.12.2003 18:00 8.7 C 67 % 1020.6 hPa 0.0 l/m 11.8 km/h (2 Bft) SO 3.0 C 6.9 C
13.12.2003 19:00 8.6 C 70 % 1019.4 hPa 0.0 l/m 5.7 km/h (1 Bft) SO 3.4 C 7.9 C
13.12.2003 20:00 8.1 C 70 % 1018.9 hPa 0.0 l/m 12.3 km/h (3 Bft) SO 3.0 C 6.0 C
13.12.2003 21:00 8.4 C 72 % 1018.3 hPa 0.0 l/m 6.8 km/h (2 Bft) SO 3.6 C 7.4 C
13.12.2003 22:00 8.9 C 70 % 1017.4 hPa 0.0 l/m 8.9 km/h (2 Bft) W 3.8 C 7.6 C
13.12.2003 23:00 7.8 C 73 % 1016.1 hPa 0.0 l/m 7.7 km/h (2 Bft) SO 3.2 C 6.5 C
14.12.2003 00:00 7.4 C 81 % 1015.3 hPa 1.0 l/m 5.6 km/h (1 Bft) SO 4.3 C 6.4 C
14.12.2003 01:00 7.1 C 88 % 1014.9 hPa 3.8 l/m 10.0 km/h (2 Bft) SO 5.3 C 5.3 C
14.12.2003 02:00 7.6 C 90 % 1014.9 hPa 2.8 l/m 4.2 km/h (1 Bft) W 6.1 C 6.9 C
14.12.2003 03:00 8.3 C 90 % 1013.7 hPa 0.3 l/m 5.9 km/h (2 Bft) SO 6.8 C 7.4 C
14.12.2003 04:00 8.6 C 91 % 1012.8 hPa 0.3 l/m 8.0 km/h (2 Bft) S 7.2 C 7.3 C
14.12.2003 05:00 9.0 C 92 % 1012.0 hPa 0.3 l/m 15.3 km/h (3 Bft) W 7.8 C 6.9 C
14.12.2003 06:00 9.9 C 88 % 1011.8 hPa 0.7 l/m 32.2 km/h (5 Bft) W-NW 8.1 C 7.5 C
14.12.2003 07:00 10.1 C 78 % 1011.8 hPa 0.0 l/m 40.2 km/h (6 Bft) W-NW 6.5 C 8.6 C
14.12.2003 08:00 10.2 C 75 % 1011.8 hPa 0.0 l/m 37.6 km/h (5 Bft) W-NW 5.9 C 9.0 C
14.12.2003 09:00 9.6 C 71 % 1012.3 hPa 0.7 l/m 52.0 km/h (7 Bft) W-NW 4.4 C 6.3 C
14.12.2003 10:00 9.1 C 64 % 1013.4 hPa 0.0 l/m 59.9 km/h (7 Bft) W-NW 2.7 C 3.8 C
14.12.2003 11:00 7.9 C 75 % 1014.1 hPa 0.3 l/m 51.9 km/h (7 Bft) W-NW 3.6 C 2.5 C
14.12.2003 12:00 7.7 C 69 % 1014.9 hPa 0.0 l/m 38.2 km/h (5 Bft) W-NW 2.5 C 3.1 C
14.12.2003 13:00 6.7 C 73 % 1015.8 hPa 3.5 l/m 27.7 km/h (4 Bft) W-NW 2.2 C 2.6 C
14.12.2003 14:00 5.0 C 85 % 1016.1 hPa 1.4 l/m 19.4 km/h (3 Bft) W-NW 2.6 C 1.4 C
14.12.2003 15:00 4.5 C 87 % 1017.0 hPa 1.4 l/m 8.6 km/h (2 Bft) W 2.6 C 2.7 C
14.12.2003 16:00 4.4 C 89 % 1017.8 hPa 0.0 l/m 8.0 km/h (2 Bft) W-NW 2.8 C 2.7 C
14.12.2003 17:00 4.4 C 91 % 1018.1 hPa 0.3 l/m 2.1 km/h (1 Bft) SO 3.0 C 4.1 C
14.12.2003 18:00 3.8 C 90 % 1019.0 hPa 1.4 l/m 1.7 km/h (1 Bft) O 2.3 C 3.5 C
14.12.2003 19:00 3.4 C 90 % 1018.9 hPa 0.0 l/m 10.5 km/h (2 Bft) W-NW 1.9 C 1.0 C
14.12.2003 20:00 4.0 C 88 % 1019.1 hPa 0.0 l/m 20.3 km/h (4 Bft) W-NW 2.2 C -0.1 C
14.12.2003 21:00 4.2 C 83 % 1019.1 hPa 0.0 l/m 13.8 km/h (3 Bft) W-NW 1.5 C 1.1 C
14.12.2003 22:00 4.2 C 80 % 1020.0 hPa 0.0 l/m 23.4 km/h (4 Bft) W-NW 1.1 C -0.2 C
14.12.2003 23:00 4.0 C 77 % 1020.1 hPa 0.0 l/m 25.8 km/h (4 Bft) W-NW 0.4 C -0.8 C
Min-Datum _ 08.12.03 13.12.03 14.12.03 - 08.12.03 - 08.12.03 08.12.03
_ Min-Zeit 03:58 12:25 05:11 - 00:13 - 02:16 23:19
Minimum _ -5.8 C 59 % 1011.8 hPa - 0.0 km/h (0 Bft) - -8.8 C -12.2 C
Max-Datum _ 14.12.03 12.12.03 08.12.03 14.12.03 14.12.03 - 14.12.03 14.12.03
_ Max-Zeit 09:08 08:10 03:10 00:00 10:38 - 06:11 09:08
Maximum _ 11.0 C 100 % 1028.5 hPa 3.8 l/m 77.6 km/h
W-NW (9 Bft)
- 8.6 C 11.0 C
Durchschnitt _ 1.1 C 83 % 1021.2 hPa #19.3 l/m 5.8 km/h (2 Bft) O-SO -1.5 C 0.1 C

Durchschnitt Minimum Temp.0.7 C
Durchschnitt Maximum Temp.1.5 C
© Kaiko 2003